createdAt,value
2023-05-05T00:02:07.228Z,100.00
2023-05-05T00:09:27.037Z,100.00
2023-05-05T00:16:45.531Z,100.00
2023-05-05T00:24:04.374Z,97.36
2023-05-05T00:31:24.287Z,100.00
2023-05-05T00:38:42.720Z,100.00
2023-05-05T00:46:03.317Z,99.82
2023-05-05T00:53:23.558Z,99.89
2023-05-05T01:00:42.146Z,100.00
2023-05-05T01:08:15.156Z,98.03
2023-05-05T01:15:37.745Z,100.00
2023-05-05T01:23:01.290Z,100.00
2023-05-05T01:30:22.437Z,100.00
2023-05-05T01:37:47.728Z,100.00
2023-05-05T01:45:09.129Z,100.00
2023-05-05T01:52:28.117Z,100.00
2023-05-05T01:59:48.148Z,100.00
2023-05-05T02:07:06.636Z,100.00
2023-05-05T02:14:28.284Z,100.00
2023-05-05T02:21:48.190Z,100.00
2023-05-05T02:29:08.786Z,100.00
2023-05-05T02:36:30.105Z,100.00
2023-05-05T02:43:56.204Z,100.00
2023-05-05T02:51:14.933Z,100.00
2023-05-05T02:58:39.525Z,100.00
2023-05-05T03:06:05.685Z,100.00
2023-05-05T03:13:26.524Z,100.00
2023-05-05T03:20:45.206Z,100.00
2023-05-05T03:28:08.010Z,100.00
2023-05-05T03:35:27.267Z,100.00
2023-05-05T03:42:46.032Z,100.00
2023-05-05T03:50:07.830Z,100.00
2023-05-05T03:57:27.204Z,100.00
2023-05-05T04:04:45.713Z,100.00
2023-05-05T04:12:07.748Z,100.00
2023-05-05T04:19:26.158Z,100.00
2023-05-05T04:26:45.277Z,100.00
2023-05-05T04:34:05.683Z,100.00
2023-05-05T04:41:24.614Z,100.00
2023-05-05T04:48:43.334Z,100.00
2023-05-05T04:56:03.673Z,100.00
2023-05-05T05:03:22.138Z,87.31
2023-05-05T05:10:41.094Z,70.88
2023-05-05T05:18:01.560Z,66.71
2023-05-05T05:25:20.469Z,69.10
2023-05-05T05:32:40.236Z,63.72
2023-05-05T05:40:00.886Z,62.97
2023-05-05T05:47:22.555Z,63.02
2023-05-05T05:54:42.136Z,64.97
2023-05-05T06:02:03.784Z,64.49
2023-05-05T06:09:25.224Z,69.61
2023-05-05T06:16:45.827Z,64.57
2023-05-05T06:24:09.950Z,57.98
2023-05-05T06:31:28.498Z,55.43
2023-05-05T06:38:47.457Z,52.72
2023-05-05T06:46:07.752Z,50.23
2023-05-05T06:53:26.320Z,50.65
2023-05-05T07:00:44.601Z,49.98
2023-05-05T07:08:04.373Z,48.29
2023-05-05T07:15:28.065Z,47.09
2023-05-05T07:22:47.611Z,46.35
2023-05-05T07:30:13.214Z,46.95
2023-05-05T07:37:32.897Z,46.08
2023-05-05T07:44:51.040Z,45.94
2023-05-05T07:52:10.755Z,43.14
2023-05-05T07:59:29.924Z,41.52
2023-05-05T08:06:48.360Z,40.65
2023-05-05T08:14:08.807Z,40.56
2023-05-05T08:21:27.802Z,39.81
2023-05-05T08:28:46.841Z,39.20
2023-05-05T08:36:07.148Z,36.80
2023-05-05T08:43:25.280Z,37.43
2023-05-05T08:50:45.261Z,35.68
2023-05-05T08:58:05.191Z,33.70
2023-05-05T09:05:23.631Z,35.06
2023-05-05T09:12:42.389Z,32.23
2023-05-05T09:20:07.373Z,32.25
2023-05-05T09:27:25.943Z,31.69
2023-05-05T09:34:44.557Z,32.40
2023-05-05T09:42:05.032Z,30.82
2023-05-05T09:49:25.700Z,31.06
2023-05-05T09:56:44.289Z,31.62
2023-05-05T10:04:03.781Z,29.93
2023-05-05T10:11:22.357Z,31.17
2023-05-05T10:18:44.069Z,30.69
2023-05-05T10:26:07.679Z,30.34
2023-05-05T10:33:32.740Z,29.38
2023-05-05T10:40:51.759Z,31.57
2023-05-05T10:48:15.787Z,30.75
2023-05-05T10:55:38.015Z,29.45
2023-05-05T11:03:11.241Z,31.36
2023-05-05T11:10:31.566Z,29.75
2023-05-05T11:17:49.894Z,29.76
2023-05-05T11:25:41.649Z,29.75
2023-05-05T11:33:37.039Z,30.82
2023-05-05T11:41:00.369Z,31.30
2023-05-05T11:48:28.819Z,29.65
2023-05-05T11:55:47.138Z,30.13
2023-05-05T12:03:07.092Z,31.44
2023-05-05T12:10:25.829Z,33.00
2023-05-05T12:17:46.322Z,32.57
2023-05-05T12:25:07.873Z,34.20
2023-05-05T12:32:28.186Z,33.61
2023-05-05T12:39:46.897Z,32.97
2023-05-05T12:47:07.514Z,32.65
2023-05-05T12:54:29.654Z,32.77
2023-05-05T13:01:53.106Z,33.08
2023-05-05T13:09:25.835Z,33.72
2023-05-05T13:16:44.086Z,33.02
2023-05-05T13:24:20.773Z,33.40
2023-05-05T13:31:47.029Z,34.08
2023-05-05T13:39:06.585Z,34.78
2023-05-05T13:46:26.525Z,33.89
2023-05-05T13:53:47.892Z,34.77
2023-05-05T14:01:06.816Z,34.90
2023-05-05T14:08:25.572Z,34.62
2023-05-05T14:15:45.624Z,35.09
2023-05-05T14:23:04.772Z,34.33
2023-05-05T14:30:23.535Z,35.18
2023-05-05T14:37:43.619Z,35.41
2023-05-05T14:45:03.656Z,35.48
2023-05-05T14:52:21.929Z,35.33
2023-05-05T14:59:42.267Z,34.92
2023-05-05T15:07:00.981Z,34.96
2023-05-05T15:14:19.401Z,34.79
2023-05-05T15:21:39.054Z,34.20
2023-05-05T15:28:57.675Z,33.86
2023-05-05T15:36:17.355Z,34.70
2023-05-05T15:43:39.014Z,35.58
2023-05-05T15:50:57.562Z,34.98
2023-05-05T15:58:16.010Z,35.10
2023-05-05T16:05:36.361Z,35.46
2023-05-05T16:12:55.405Z,35.93
2023-05-05T16:20:14.537Z,36.55
2023-05-05T16:27:34.320Z,36.88
2023-05-05T16:34:52.904Z,35.95
2023-05-05T16:42:11.487Z,35.55
2023-05-05T16:49:31.503Z,36.17
2023-05-05T16:56:51.198Z,36.19
2023-05-05T17:04:09.972Z,36.34
2023-05-05T17:11:29.937Z,37.48
2023-05-05T17:18:48.415Z,38.63
2023-05-05T17:26:06.770Z,39.92
2023-05-05T17:33:26.494Z,41.33
2023-05-05T17:40:45.325Z,41.32
2023-05-05T17:48:04.082Z,41.71
2023-05-05T17:55:24.569Z,41.66
2023-05-05T18:02:43.578Z,42.20
2023-05-05T18:10:01.906Z,46.24
2023-05-05T18:17:22.079Z,48.83
2023-05-05T18:24:40.424Z,51.27
2023-05-05T18:31:59.658Z,53.21
2023-05-05T18:39:19.338Z,54.10
2023-05-05T18:46:38.220Z,54.44
2023-05-05T18:53:57.156Z,55.25
2023-05-05T19:01:17.605Z,56.16
2023-05-05T19:08:36.969Z,56.60
2023-05-05T19:15:57.657Z,58.24
2023-05-05T19:23:23.434Z,60.18
2023-05-05T19:30:49.029Z,61.86
2023-05-05T19:38:09.977Z,61.92
2023-05-05T19:45:30.405Z,62.33
2023-05-05T19:52:48.903Z,63.72
2023-05-05T20:00:10.730Z,64.86
2023-05-05T20:07:31.469Z,65.44
2023-05-05T20:14:50.454Z,65.22
2023-05-05T20:22:09.622Z,66.03
2023-05-05T20:29:30.539Z,66.48
2023-05-05T20:36:49.520Z,67.56
2023-05-05T20:44:09.908Z,68.41
2023-05-05T20:51:32.221Z,70.13
2023-05-05T20:58:51.264Z,71.82
2023-05-05T21:06:10.452Z,73.05
2023-05-05T21:13:31.360Z,75.18
2023-05-05T21:20:49.799Z,76.92
2023-05-05T21:28:08.792Z,77.75
2023-05-05T21:35:28.637Z,78.77
2023-05-05T21:42:47.338Z,80.20
2023-05-05T21:50:06.706Z,82.02
2023-05-05T21:57:27.359Z,84.50
2023-05-05T22:04:48.803Z,84.39
2023-05-05T22:12:08.828Z,85.92
2023-05-05T22:19:29.521Z,87.75
2023-05-05T22:26:48.614Z,89.01
2023-05-05T22:34:07.016Z,90.35
2023-05-05T22:41:26.984Z,91.54
2023-05-05T22:48:45.241Z,92.57
2023-05-05T22:56:04.866Z,93.58
2023-05-05T23:03:25.107Z,95.04
2023-05-05T23:10:43.516Z,95.84
2023-05-05T23:18:01.909Z,96.72
2023-05-05T23:25:21.789Z,97.93
2023-05-05T23:32:40.235Z,98.36
2023-05-05T23:39:58.844Z,99.87
2023-05-05T23:47:18.756Z,99.35
2023-05-05T23:54:37.444Z,100.00
